Aviation Digital Data Service (ADDS)

Output produced by METARs form (0338 UTC 24 February 2017)
found at http://www.aviationweather.gov/adds/metars/
 
LLBG 240320Z VRB01KT 8000 NSC 08/07 Q1024 TEMPO 5000 BR SCT015
TAF LLBG 232312Z 2400/2424 VRB03KT 7000 FEW020 
     PROB30 2402/2406 5000 BR SCT015 
     BECMG 2407/2409 32008KT CAVOK 
     BECMG 2414/2416 02005KT 
     BECMG 2418/2420 VRB03KT TX21/2410Z TN09/2403Z
       
TAF LLET 232309Z 2400/2424 01010KT CAVOK 
     BECMG 2407/2409 02016KT 
     BECMG 2420/2422 36010KT TX25/2413Z TN10/2404Z
       
LLHA 240250Z AUTO 15004KT 7000 NSC 08/07 Q1024
TAF LLHA 232307Z 2400/2424 VRB04KT 9999 FEW025 
     BECMG 2407/2409 34010KT CAVOK 
     BECMG 2417/2419 VRB04KT TX19/2411Z TN08/2404Z
       
TAF LLIB 231108Z 2312/2412 16007KT 8000 FEW040 
     BECMG 2313/2315 32008KT CAVOK 
     BECMG 2317/2319 VRB03KT 
     BECMG 2323/2401 6000 FEW015 
     PROB40 2403/2407 4000 BR SCT015 
     BECMG 2407/2409 16007KT CAVOK TX17/2312Z TN04/2404Z
       
TAF LLOV 231105Z 2312/2412 03010KT CAVOK 
     BECMG 2317/2319 35004KT 
     BECMG 2407/2409 03010KT TX16/2312Z TN05/2404Z
       
LLSD 240250Z 09006KT 8000 NSC 11/09 Q1024
TAF LLSD 232311Z 2400/2424 09005KT 7000 FEW020 
     BECMG 2406/2408 32010KT CAVOK 
     BECMG 2414/2416 02006KT 
     BECMG 2418/2420 08005KT TX19/2412Z TN10/2404Z
       
LLBG 240320Z VRB01KT 8000 NSC 08/07 Q1024 TEMPO 5000 BR SCT015
TAF LLBG 232312Z 2400/2424 VRB03KT 7000 FEW020 
     PROB30 2402/2406 5000 BR SCT015 
     BECMG 2407/2409 32008KT CAVOK 
     BECMG 2414/2416 02005KT 
     BECMG 2418/2420 VRB03KT TX21/2410Z TN09/2403Z
       
TAF LLET 232309Z 2400/2424 01010KT CAVOK 
     BECMG 2407/2409 02016KT 
     BECMG 2420/2422 36010KT TX25/2413Z TN10/2404Z
       
LLHA 240250Z AUTO 15004KT 7000 NSC 08/07 Q1024
TAF LLHA 232307Z 2400/2424 VRB04KT 9999 FEW025 
     BECMG 2407/2409 34010KT CAVOK 
     BECMG 2417/2419 VRB04KT TX19/2411Z TN08/2404Z
       
TAF LLIB 231108Z 2312/2412 16007KT 8000 FEW040 
     BECMG 2313/2315 32008KT CAVOK 
     BECMG 2317/2319 VRB03KT 
     BECMG 2323/2401 6000 FEW015 
     PROB40 2403/2407 4000 BR SCT015 
     BECMG 2407/2409 16007KT CAVOK TX17/2312Z TN04/2404Z
       
TAF LLOV 231105Z 2312/2412 03010KT CAVOK 
     BECMG 2317/2319 35004KT 
     BECMG 2407/2409 03010KT TX16/2312Z TN05/2404Z
       
LLSD 240250Z 09006KT 8000 NSC 11/09 Q1024
TAF LLSD 232311Z 2400/2424 09005KT 7000 FEW020 
     BECMG 2406/2408 32010KT CAVOK 
     BECMG 2414/2416 02006KT 
     BECMG 2418/2420 08005KT TX19/2412Z TN10/2404Z